Terminal Aerodrome Forecast
Issued by NWS

Home | Current Version | Previous Version | Text Only | Print | Product List | Glossary On
Versions: 1 2 3 4 5 6 7 8 9 10 11 12 13 14 15 16 17 18 19
000
FTUS41 KBGM 020500
TAFELM
TAF
KELM 020540Z 0206/0306 29006KT 4SM BR SCT008 OVC035
     FM020900 29006KT P6SM OVC020
     FM021400 32015G25KT P6SM -SHSN SCT025 BKN035
     FM030000 30005KT P6SM SCT050=

USA.gov is the U.S. government's official web portal to all federal, state and local government web resources and services.